Time;durP1;ratioP1;P1;durP2;ratioP2;P2;SDS_P1;SDS_P2;PMS_P1;PMS_P2;Temp;Humidity;BMP_temperature;BMP_pressure;BME280_temperature;BME280_humidity;BME280_pressure;Samples;Min_cycle;Max_cycle;Signal;HPM_P1;HPM_P2
2022/08/30 00:02:52;;;;;;;10.00;4.83;;;18.80;91.30;;;;;;5123299;27;20233;-63
2022/08/30 00:05:17;;;;;;;10.10;4.53;;;18.70;91.30;;;;;;5064725;28;20193;-63
2022/08/30 00:07:43;;;;;;;9.00;5.10;;;18.70;91.30;;;;;;5073605;28;20194;-63
2022/08/30 00:10:09;;;;;;;9.30;4.87;;;18.70;91.20;;;;;;5056146;28;20257;-63
2022/08/30 00:12:35;;;;;;;17.60;5.53;;;18.70;91.50;;;;;;5112991;28;20218;-63
2022/08/30 00:15:02;;;;;;;5.57;4.50;;;18.70;91.40;;;;;;5076402;28;20193;-63
2022/08/30 00:17:28;;;;;;;8.20;4.70;;;18.70;91.50;;;;;;5103948;28;20192;-63
2022/08/30 00:19:54;;;;;;;6.47;4.47;;;18.70;91.40;;;;;;5080883;28;20193;-63
2022/08/30 00:22:21;;;;;;;8.13;4.83;;;18.70;91.20;;;;;;5096899;28;20234;-63
2022/08/30 00:24:46;;;;;;;6.13;4.93;;;18.70;91.20;;;;;;5079015;28;20192;-63
2022/08/30 00:27:12;;;;;;;10.83;4.43;;;18.60;91.20;;;;;;5060238;28;20237;-63
2022/08/30 00:29:38;;;;;;;4.73;4.23;;;18.60;91.00;;;;;;5065053;28;20185;-63
2022/08/30 00:32:04;;;;;;;4.30;3.90;;;18.60;91.40;;;;;;5067232;28;20270;-63
2022/08/30 00:34:31;;;;;;;6.73;4.50;;;18.60;91.40;;;;;;5080432;28;20275;-63
2022/08/30 00:36:58;;;;;;;9.00;4.50;;;18.60;91.40;;;;;;5088916;28;20287;-63
2022/08/30 00:39:23;;;;;;;4.40;4.00;;;18.60;91.30;;;;;;5079304;28;20185;-63
2022/08/30 00:41:49;;;;;;;6.07;3.97;;;18.60;91.40;;;;;;5076670;28;20282;-63
2022/08/30 00:44:15;;;;;;;8.50;4.60;;;18.60;91.40;;;;;;5064768;28;20228;-63
2022/08/30 00:46:41;;;;;;;9.83;4.20;;;18.60;91.40;;;;;;5074210;28;20200;-63
2022/08/30 00:49:08;;;;;;;6.40;4.53;;;18.60;91.40;;;;;;5062531;28;20227;-63
2022/08/30 00:51:34;;;;;;;7.53;4.80;;;18.60;91.30;;;;;;5096443;28;20224;-63
2022/08/30 00:54:00;;;;;;;7.57;5.03;;;18.60;91.40;;;;;;5078339;28;20197;-63
2022/08/30 00:56:28;;;;;;;10.60;4.53;;;18.60;91.40;;;;;;5095937;28;20612;-63
2022/08/30 00:58:57;;;;;;;8.70;4.70;;;18.50;91.40;;;;;;5101867;28;20176;-63
2022/08/30 01:01:24;;;;;;;8.17;4.87;;;18.50;91.40;;;;;;5095103;28;20212;-63
2022/08/30 01:03:50;;;;;;;9.87;4.57;;;18.50;91.30;;;;;;5082816;28;20221;-63
2022/08/30 01:06:16;;;;;;;9.03;4.93;;;18.50;91.30;;;;;;5077227;27;20187;-63
2022/08/30 01:08:44;;;;;;;6.70;5.03;;;18.50;91.30;;;;;;5117197;27;20195;-63
2022/08/30 01:11:11;;;;;;;11.53;4.87;;;18.50;91.30;;;;;;5097473;27;20196;-63
2022/08/30 01:13:37;;;;;;;6.43;4.60;;;18.50;91.30;;;;;;5099096;27;20196;-63
2022/08/30 01:16:03;;;;;;;5.93;4.00;;;18.50;91.30;;;;;;5075178;28;20192;-63
2022/08/30 01:18:30;;;;;;;7.03;5.00;;;18.50;91.20;;;;;;5095564;27;20185;-63
2022/08/30 01:21:15;;;;;;;7.37;4.63;;;18.50;91.50;;;;;;5106985;27;20192;-63
2022/08/30 01:23:44;;;;;;;11.70;4.30;;;18.50;91.40;;;;;;5109489;28;20184;-63
2022/08/30 01:26:11;;;;;;;4.70;4.30;;;18.40;91.30;;;;;;5113728;28;20229;-63
2022/08/30 01:28:38;;;;;;;9.03;5.30;;;18.40;91.30;;;;;;5082852;28;20200;-63
2022/08/30 01:31:04;;;;;;;4.83;4.17;;;18.40;91.00;;;;;;5099018;28;20214;-63
2022/08/30 01:33:30;;;;;;;6.00;4.90;;;18.40;91.30;;;;;;5089143;28;20208;-63
2022/08/30 01:36:03;;;;;;;6.57;4.80;;;18.40;91.50;;;;;;5091700;28;20197;-63
2022/08/30 01:38:50;;;;;;;7.60;4.73;;;18.40;91.30;;;;;;5113926;28;20187;-63
2022/08/30 01:41:31;;;;;;;7.37;4.37;;;18.40;91.20;;;;;;5110415;27;20190;-63
2022/08/30 01:44:00;;;;;;;7.10;4.17;;;18.30;91.20;;;;;;5099432;28;20180;-63
2022/08/30 01:46:30;;;;;;;5.33;4.67;;;18.30;91.10;;;;;;5099457;28;20192;-63
2022/08/30 01:48:57;;;;;;;8.87;4.43;;;18.30;91.20;;;;;;5105779;28;20180;-63
2022/08/30 01:51:25;;;;;;;6.27;5.07;;;18.30;91.20;;;;;;5097625;28;20180;-63
2022/08/30 01:53:51;;;;;;;5.50;4.30;;;18.30;91.20;;;;;;5099065;28;20184;-63
2022/08/30 01:56:18;;;;;;;6.43;4.13;;;18.30;91.10;;;;;;5068439;28;20219;-63
2022/08/30 01:58:44;;;;;;;6.83;4.50;;;18.30;91.20;;;;;;5098112;28;20178;-63
2022/08/30 02:01:12;;;;;;;7.20;4.60;;;18.30;91.10;;;;;;5098608;28;20215;-63
2022/08/30 02:03:40;;;;;;;11.50;4.97;;;18.30;91.20;;;;;;5090153;28;20181;-63
2022/08/30 02:06:10;;;;;;;5.03;4.53;;;18.30;91.20;;;;;;5095957;28;20177;-63
2022/08/30 02:08:37;;;;;;;13.03;5.17;;;18.20;91.20;;;;;;5116950;28;20176;-63
2022/08/30 02:11:04;;;;;;;6.23;5.37;;;18.20;91.30;;;;;;5116655;28;20229;-63
2022/08/30 02:13:29;;;;;;;10.17;5.00;;;18.20;91.00;;;;;;5116288;28;20284;-63
2022/08/30 02:15:56;;;;;;;6.73;4.63;;;18.20;91.20;;;;;;5081897;28;20279;-63
2022/08/30 02:18:24;;;;;;;8.87;5.07;;;18.20;91.00;;;;;;5115828;28;20184;-63
2022/08/30 02:20:49;;;;;;;4.60;4.20;;;18.20;91.00;;;;;;5093642;28;20199;-63
2022/08/30 02:23:16;;;;;;;5.43;4.93;;;18.20;91.10;;;;;;5117110;28;20188;-63
2022/08/30 02:25:43;;;;;;;7.13;4.77;;;18.10;91.00;;;;;;5079370;28;20188;-63
2022/08/30 02:28:09;;;;;;;8.53;4.90;;;18.10;91.10;;;;;;5090720;28;20232;-63
2022/08/30 02:30:35;;;;;;;7.50;4.77;;;18.10;91.10;;;;;;5094871;28;20198;-63
2022/08/30 02:33:01;;;;;;;5.67;4.20;;;18.10;91.10;;;;;;5075956;28;20227;-63
2022/08/30 02:35:27;;;;;;;7.10;4.73;;;18.10;91.20;;;;;;5097112;28;20184;-63
2022/08/30 02:37:52;;;;;;;8.03;4.80;;;18.10;91.10;;;;;;5061509;28;20280;-63
2022/08/30 02:40:20;;;;;;;7.03;4.70;;;18.10;91.30;;;;;;5080479;28;20196;-63
2022/08/30 02:42:47;;;;;;;4.90;4.50;;;18.10;91.30;;;;;;5081333;28;20219;-63
2022/08/30 02:45:12;;;;;;;6.80;5.10;;;18.10;91.30;;;;;;5068010;28;20200;-63
2022/08/30 02:47:38;;;;;;;6.20;4.47;;;18.10;91.20;;;;;;5098391;28;20203;-63
2022/08/30 02:50:05;;;;;;;5.37;4.87;;;18.10;91.30;;;;;;5064114;28;20197;-63
2022/08/30 02:52:31;;;;;;;6.70;4.87;;;18.10;91.40;;;;;;5097113;28;20204;-63
2022/08/30 02:54:57;;;;;;;5.53;4.70;;;18.20;91.40;;;;;;5101435;28;20185;-63
2022/08/30 02:57:22;;;;;;;6.90;4.53;;;18.20;91.30;;;;;;5091577;28;20221;-63
2022/08/30 02:59:48;;;;;;;6.73;4.70;;;18.20;91.40;;;;;;5084407;28;20219;-63
2022/08/30 03:02:15;;;;;;;5.60;4.93;;;18.20;91.50;;;;;;5080800;28;20271;-63
2022/08/30 03:04:43;;;;;;;6.17;4.67;;;18.20;91.40;;;;;;5097785;28;20194;-63
2022/08/30 03:07:11;;;;;;;6.77;4.47;;;18.20;91.50;;;;;;5075303;28;20199;-63
2022/08/30 03:09:37;;;;;;;12.50;5.90;;;18.30;91.50;;;;;;5097629;28;20199;-63
2022/08/30 03:12:05;;;;;;;5.90;5.40;;;18.20;91.40;;;;;;5080980;28;20228;-63
2022/08/30 03:14:32;;;;;;;5.93;5.27;;;18.20;91.20;;;;;;5102516;27;20266;-63
2022/08/30 03:16:58;;;;;;;6.07;5.37;;;18.20;91.50;;;;;;5113744;28;20229;-63
2022/08/30 03:19:24;;;;;;;7.90;5.27;;;18.20;91.40;;;;;;5081115;28;20180;-63
2022/08/30 03:21:50;;;;;;;10.80;5.87;;;18.20;91.30;;;;;;5067061;28;20185;-63
2022/08/30 03:24:16;;;;;;;11.43;6.00;;;18.20;91.20;;;;;;5063679;28;20188;-63
2022/08/30 03:26:42;;;;;;;6.83;6.13;;;18.10;91.30;;;;;;5123006;27;20223;-63
2022/08/30 03:29:08;;;;;;;6.80;5.20;;;18.10;91.30;;;;;;5076993;28;20189;-63
2022/08/30 03:31:33;;;;;;;7.30;5.47;;;18.10;91.30;;;;;;5083337;28;20192;-63
2022/08/30 03:33:59;;;;;;;8.40;5.70;;;18.10;91.30;;;;;;5088302;28;20196;-63
2022/08/30 03:36:24;;;;;;;7.77;5.80;;;18.20;91.10;;;;;;5081171;28;20196;-63
2022/08/30 03:38:50;;;;;;;6.90;5.03;;;18.10;90.90;;;;;;5066481;28;20185;-63
2022/08/30 03:41:16;;;;;;;7.03;5.80;;;18.10;91.00;;;;;;5080992;28;20192;-63
2022/08/30 03:43:42;;;;;;;7.33;5.80;;;18.10;91.00;;;;;;5082831;28;20184;-63
2022/08/30 03:46:10;;;;;;;8.57;5.73;;;18.00;90.90;;;;;;5096257;28;20196;-63
2022/08/30 03:48:36;;;;;;;6.37;5.17;;;18.00;90.80;;;;;;5097811;28;20190;-63
2022/08/30 03:51:01;;;;;;;7.70;6.00;;;18.00;90.80;;;;;;5063374;28;20200;-63
2022/08/30 03:53:27;;;;;;;9.07;6.20;;;18.00;90.80;;;;;;5063520;28;20212;-63
2022/08/30 03:55:53;;;;;;;7.53;6.13;;;18.00;90.80;;;;;;5103646;27;20216;-63
2022/08/30 03:58:19;;;;;;;8.93;6.00;;;18.00;90.80;;;;;;5097617;28;20176;-63
2022/08/30 04:00:45;;;;;;;7.07;6.37;;;17.90;91.00;;;;;;5096364;28;20233;-63
2022/08/30 04:03:10;;;;;;;7.60;6.20;;;17.80;91.10;;;;;;5078136;28;20208;-63
2022/08/30 04:05:36;;;;;;;12.37;6.20;;;17.80;91.10;;;;;;5059874;28;20226;-63
2022/08/30 04:08:03;;;;;;;12.10;6.77;;;17.80;91.10;;;;;;5079352;28;20200;-63
2022/08/30 04:10:28;;;;;;;6.73;5.73;;;17.80;90.90;;;;;;5096616;28;20196;-63
2022/08/30 04:12:55;;;;;;;6.53;5.60;;;17.80;90.90;;;;;;5065236;28;20324;-63
2022/08/30 04:15:21;;;;;;;8.50;6.40;;;17.80;90.90;;;;;;5082942;28;20212;-63
2022/08/30 04:17:47;;;;;;;8.87;6.40;;;17.80;91.00;;;;;;5062659;28;20224;-63
2022/08/30 04:20:13;;;;;;;6.97;6.33;;;17.80;90.80;;;;;;5084801;28;20180;-64
2022/08/30 04:22:39;;;;;;;8.90;6.23;;;17.80;90.80;;;;;;5112006;28;20189;-64
2022/08/30 04:25:06;;;;;;;9.30;6.90;;;17.70;90.90;;;;;;5070829;28;20200;-64
2022/08/30 04:27:31;;;;;;;7.37;6.40;;;17.80;90.80;;;;;;5101158;28;20236;-63
2022/08/30 04:29:58;;;;;;;9.03;6.73;;;17.80;91.20;;;;;;5063822;28;20250;-63
2022/08/30 04:32:24;;;;;;;7.23;6.53;;;17.80;91.20;;;;;;5104776;28;20208;-63
2022/08/30 04:34:54;;;;;;;7.03;6.33;;;17.80;91.20;;;;;;5077512;28;20188;-63
2022/08/30 04:37:20;;;;;;;9.13;7.30;;;17.80;91.00;;;;;;5074547;28;20220;-64
2022/08/30 04:39:45;;;;;;;10.03;6.20;;;17.80;90.80;;;;;;5083737;27;20269;-64
2022/08/30 04:42:11;;;;;;;6.80;6.13;;;17.80;90.80;;;;;;5109893;27;20305;-63
2022/08/30 04:44:37;;;;;;;7.87;6.70;;;17.80;90.70;;;;;;5083165;28;20203;-63
2022/08/30 04:47:02;;;;;;;10.30;6.10;;;17.80;90.80;;;;;;5075085;28;20522;-63
2022/08/30 04:49:29;;;;;;;7.80;6.20;;;17.70;90.70;;;;;;5086446;28;20242;-64
2022/08/30 04:51:55;;;;;;;7.03;6.33;;;17.80;90.80;;;;;;5079326;28;20208;-64
2022/08/30 04:54:21;;;;;;;7.27;6.30;;;17.70;90.70;;;;;;5077722;28;20246;-64
2022/08/30 04:56:46;;;;;;;10.10;6.83;;;17.80;90.80;;;;;;5088990;28;20184;-63
2022/08/30 04:59:12;;;;;;;7.00;6.40;;;17.10;92.20;;;;;;5074838;28;20199;-64
2022/08/30 05:01:39;;;;;;;7.17;6.47;;;16.80;93.30;;;;;;5068419;28;20184;-64
2022/08/30 05:04:06;;;;;;;10.77;6.43;;;16.70;93.80;;;;;;5084687;28;20199;-63
2022/08/30 05:06:31;;;;;;;12.97;6.63;;;16.60;94.10;;;;;;5082430;28;20192;-63
2022/08/30 05:08:59;;;;;;;7.07;6.37;;;16.60;94.50;;;;;;5090978;28;20196;-63
2022/08/30 05:11:25;;;;;;;8.70;6.80;;;16.60;94.70;;;;;;5077431;28;20189;-63
2022/08/30 05:13:51;;;;;;;8.10;7.27;;;16.70;95.00;;;;;;5066242;28;20193;-63
2022/08/30 05:16:18;;;;;;;10.70;7.10;;;16.70;95.10;;;;;;5090879;28;20237;-63
2022/08/30 05:18:47;;;;;;;7.37;6.70;;;16.70;95.20;;;;;;5082085;28;20198;-65
2022/08/30 05:21:19;;;;;;;7.27;6.67;;;16.80;95.20;;;;;;5110055;28;20199;-63
2022/08/30 05:23:44;;;;;;;9.90;7.27;;;16.70;95.20;;;;;;5095589;28;20222;-63
2022/08/30 05:26:16;;;;;;;9.13;7.53;;;16.80;95.20;;;;;;5075851;28;20200;-63
2022/08/30 05:28:43;;;;;;;9.17;7.30;;;16.80;95.20;;;;;;5101221;28;20196;-63
2022/08/30 05:31:31;;;;;;;7.13;6.50;;;16.80;95.20;;;;;;5083078;28;20196;-63
2022/08/30 05:33:57;;;;;;;8.43;7.23;;;16.70;95.20;;;;;;5117051;28;20230;-62
2022/08/30 05:36:26;;;;;;;9.07;7.13;;;16.80;95.30;;;;;;5080592;28;20203;-63
2022/08/30 05:38:53;;;;;;;8.67;7.77;;;16.80;95.30;;;;;;5094945;28;20189;-62
2022/08/30 05:41:20;;;;;;;8.07;6.80;;;16.80;95.30;;;;;;5084054;28;20196;-61
2022/08/30 05:43:47;;;;;;;8.23;7.07;;;16.80;95.40;;;;;;5099783;28;20204;-62
2022/08/30 05:46:18;;;;;;;11.40;7.60;;;16.80;95.30;;;;;;5107686;28;20196;-62
2022/08/30 05:48:44;;;;;;;7.97;7.07;;;16.80;95.40;;;;;;5100508;28;20201;-62
2022/08/30 05:51:17;;;;;;;8.13;7.33;;;16.80;95.40;;;;;;5106921;28;20189;-63
2022/08/30 05:53:43;;;;;;;9.37;7.90;;;16.80;95.40;;;;;;5114034;28;20303;-63
2022/08/30 05:56:16;;;;;;;8.20;7.40;;;16.80;95.40;;;;;;5093133;28;20200;-63
2022/08/30 05:58:42;;;;;;;9.83;7.83;;;16.90;95.40;;;;;;5104403;28;20200;-63
2022/08/30 06:01:22;;;;;;;10.53;7.57;;;16.90;95.40;;;;;;5099176;28;20277;-63
2022/08/30 06:03:50;;;;;;;8.13;7.33;;;16.90;95.50;;;;;;5105441;28;20196;-63
2022/08/30 06:06:16;;;;;;;8.83;7.93;;;16.90;95.50;;;;;;5095702;28;20231;-63
2022/08/30 06:08:44;;;;;;;8.90;7.50;;;16.90;95.50;;;;;;5086103;28;20193;-63
2022/08/30 06:11:11;;;;;;;12.67;7.70;;;16.90;95.60;;;;;;5076463;28;20247;-63
2022/08/30 06:13:37;;;;;;;9.27;7.97;;;17.00;95.60;;;;;;5066599;28;20209;-63
2022/08/30 06:16:03;;;;;;;12.07;8.13;;;17.00;95.70;;;;;;5071339;27;20199;-61
2022/08/30 06:18:30;;;;;;;8.73;7.20;;;17.00;95.70;;;;;;5061226;28;20188;-63
2022/08/30 06:20:56;;;;;;;8.20;7.30;;;17.10;95.70;;;;;;5054990;28;20290;-63
2022/08/30 06:23:22;;;;;;;8.20;7.40;;;17.10;95.70;;;;;;5096795;28;20279;-63
2022/08/30 06:25:47;;;;;;;9.70;7.83;;;17.20;95.70;;;;;;5097196;28;20190;-63
2022/08/30 06:28:13;;;;;;;9.27;8.17;;;17.20;95.80;;;;;;5071872;28;20241;-63
2022/08/30 06:30:41;;;;;;;10.23;8.43;;;17.20;95.80;;;;;;5092595;28;20196;-63
2022/08/30 06:33:08;;;;;;;9.07;8.17;;;17.30;95.80;;;;;;5082103;28;20236;-63
2022/08/30 06:35:34;;;;;;;9.37;8.40;;;17.30;95.80;;;;;;5078832;28;20235;-64
2022/08/30 06:38:00;;;;;;;10.77;8.10;;;17.30;95.90;;;;;;5046828;28;20192;-63
2022/08/30 06:40:26;;;;;;;8.93;8.03;;;17.30;95.90;;;;;;5048222;28;20184;-63
2022/08/30 06:42:52;;;;;;;8.33;7.57;;;17.30;95.90;;;;;;5061694;28;20263;-63
2022/08/30 06:45:19;;;;;;;8.13;7.33;;;17.30;95.80;;;;;;5059412;28;20201;-63
2022/08/30 06:47:45;;;;;;;10.07;8.27;;;17.40;95.80;;;;;;5068310;27;20225;-63
2022/08/30 06:50:12;;;;;;;10.03;8.37;;;17.40;95.80;;;;;;5087011;28;20212;-64
2022/08/30 06:52:41;;;;;;;8.83;7.97;;;17.40;95.80;;;;;;5091398;28;20208;-63
2022/08/30 06:55:08;;;;;;;9.23;8.33;;;17.40;95.80;;;;;;5074524;28;20316;-65
2022/08/30 06:57:34;;;;;;;8.60;7.73;;;17.50;95.80;;;;;;5085874;28;20188;-63
2022/08/30 07:00:01;;;;;;;8.67;7.87;;;17.50;95.80;;;;;;5083542;27;20268;-64
2022/08/30 07:02:27;;;;;;;10.13;8.83;;;17.50;95.80;;;;;;5070986;28;20201;-63
2022/08/30 07:04:53;;;;;;;9.73;8.43;;;17.60;95.80;;;;;;5090662;28;20185;-63
2022/08/30 07:07:19;;;;;;;10.07;8.47;;;17.60;95.90;;;;;;5091021;28;20197;-64
2022/08/30 07:09:44;;;;;;;9.27;8.37;;;17.70;95.90;;;;;;5080682;27;20193;-64
2022/08/30 07:12:11;;;;;;;8.90;8.03;;;17.70;95.80;;;;;;5087275;28;20221;-63
2022/08/30 07:14:38;;;;;;;8.50;7.70;;;17.70;95.90;;;;;;5097533;28;20185;-63
2022/08/30 07:18:49;;;;;;;9.17;8.27;;;17.70;95.90;;;;;;5113441;28;20184;-63
2022/08/30 07:19:50;;;;;;;8.37;7.57;;;17.80;95.90;;;;;;5084439;28;20184;-62
2022/08/30 07:22:16;;;;;;;8.73;7.83;;;17.70;95.80;;;;;;5092968;28;20202;-62
2022/08/30 07:24:42;;;;;;;9.73;8.83;;;17.80;95.90;;;;;;5074764;28;20203;-62
2022/08/30 07:27:08;;;;;;;8.70;7.80;;;17.80;95.90;;;;;;5057857;28;20251;-63
2022/08/30 07:29:33;;;;;;;8.57;7.73;;;17.80;95.90;;;;;;5062907;27;20464;-60
2022/08/30 07:31:59;;;;;;;9.53;7.90;;;17.80;95.90;;;;;;5088105;28;20220;-63
2022/08/30 07:34:25;;;;;;;10.53;7.90;;;17.80;95.90;;;;;;5059881;28;20235;-64
2022/08/30 07:36:51;;;;;;;9.07;8.23;;;17.90;95.90;;;;;;5060753;28;20184;-64
2022/08/30 07:39:17;;;;;;;10.13;8.37;;;17.90;96.00;;;;;;5078516;28;20188;-64
2022/08/30 07:41:43;;;;;;;8.77;7.97;;;18.00;96.00;;;;;;5078051;28;20275;-64
2022/08/30 07:44:09;;;;;;;9.77;7.83;;;18.00;96.10;;;;;;5061928;28;20200;-64
2022/08/30 07:46:37;;;;;;;10.13;9.07;;;18.10;96.10;;;;;;5089907;27;20192;-64
2022/08/30 07:49:04;;;;;;;9.17;8.27;;;18.10;96.10;;;;;;5093606;28;20196;-64
2022/08/30 07:51:30;;;;;;;9.07;8.17;;;18.20;96.20;;;;;;5099837;27;20247;-64
2022/08/30 07:53:56;;;;;;;8.83;7.93;;;18.20;96.20;;;;;;5074362;27;20192;-64
2022/08/30 07:56:23;;;;;;;7.90;7.10;;;18.30;96.10;;;;;;5084413;28;20189;-64
2022/08/30 07:58:49;;;;;;;8.47;7.67;;;18.30;95.80;;;;;;5079764;28;20189;-64
2022/08/30 08:01:15;;;;;;;8.33;7.27;;;18.40;96.00;;;;;;5085328;28;20192;-64
2022/08/30 08:03:42;;;;;;;7.20;6.50;;;18.50;95.90;;;;;;5094694;28;20257;-64
2022/08/30 08:06:10;;;;;;;8.13;6.80;;;18.60;94.70;;;;;;5082035;28;20196;-64
2022/08/30 08:08:37;;;;;;;7.77;6.70;;;18.70;93.60;;;;;;5085355;28;20190;-64
2022/08/30 08:11:13;;;;;;;7.67;6.87;;;18.80;93.40;;;;;;5075562;28;20203;-64
2022/08/30 08:13:40;;;;;;;8.20;6.90;;;18.80;93.90;;;;;;5084428;28;20214;-64
2022/08/30 08:16:06;;;;;;;8.27;7.47;;;18.90;92.10;;;;;;5076854;28;20269;-64
2022/08/30 08:18:32;;;;;;;8.10;6.97;;;19.00;93.30;;;;;;5074369;28;20192;-64
2022/08/30 08:20:59;;;;;;;10.13;7.40;;;19.00;93.80;;;;;;5093043;28;20184;-64
2022/08/30 08:23:25;;;;;;;8.87;7.80;;;19.00;94.20;;;;;;5076586;28;20267;-64
2022/08/30 08:25:51;;;;;;;9.27;7.00;;;19.00;94.40;;;;;;5078236;28;20333;-64
2022/08/30 08:28:17;;;;;;;10.07;7.47;;;19.00;93.50;;;;;;5066436;28;20301;-64
2022/08/30 08:30:43;;;;;;;10.57;7.37;;;19.00;93.40;;;;;;5068498;28;20196;-64
2022/08/30 08:33:09;;;;;;;7.63;6.90;;;19.00;92.50;;;;;;5089255;28;20213;-64
2022/08/30 08:35:35;;;;;;;9.70;7.77;;;18.90;92.50;;;;;;5056912;28;20192;-64
2022/08/30 08:38:01;;;;;;;7.27;6.57;;;18.90;92.60;;;;;;5065181;28;20192;-64
2022/08/30 08:40:29;;;;;;;11.00;6.73;;;19.00;90.30;;;;;;5068472;28;20197;-63
2022/08/30 08:43:10;;;;;;;7.67;6.90;;;19.00;89.90;;;;;;5080372;28;20188;-64
2022/08/30 08:46:02;;;;;;;9.10;7.03;;;19.10;90.50;;;;;;5062329;28;20185;-64
2022/08/30 08:48:42;;;;;;;10.63;6.67;;;19.00;91.90;;;;;;5072826;28;20189;-64
2022/08/30 08:54:07;;;;;;;6.60;5.90;;;19.00;92.50;;;;;;5091407;28;20235;-64
2022/08/30 08:56:33;;;;;;;9.17;6.53;;;19.00;92.30;;;;;;5072998;28;20271;-64
2022/08/30 08:58:59;;;;;;;6.33;5.73;;;19.20;86.80;;;;;;5053944;28;20190;-64
2022/08/30 09:01:30;;;;;;;7.00;6.40;;;19.50;86.10;;;;;;5071706;28;20185;-64
2022/08/30 09:03:57;;;;;;;10.07;7.27;;;19.40;87.50;;;;;;5049697;28;20189;-63
2022/08/30 09:06:59;;;;;;;10.97;6.90;;;19.30;89.00;;;;;;5074903;28;20185;-63
2022/08/30 09:09:37;;;;;;;14.70;10.70;;;19.30;90.30;;;;;;5087032;28;20192;-63
2022/08/30 09:12:05;;;;;;;9.27;8.30;;;19.40;87.50;;;;;;5064706;28;20219;-63
2022/08/30 09:14:34;;;;;;;11.50;10.30;;;19.70;86.60;;;;;;5072637;28;20286;-63
2022/08/30 09:17:12;;;;;;;11.43;9.00;;;19.80;87.50;;;;;;5073383;28;20189;-63
2022/08/30 09:19:45;;;;;;;8.57;7.63;;;19.90;85.60;;;;;;5058118;28;20182;-63
2022/08/30 09:22:13;;;;;;;13.00;11.70;;;20.10;84.70;;;;;;5071279;28;20193;-63
2022/08/30 09:24:45;;;;;;;11.73;9.67;;;20.00;85.30;;;;;;5075649;28;20204;-63
2022/08/30 09:27:19;;;;;;;9.10;8.10;;;20.20;84.80;;;;;;5080705;28;20229;-63
2022/08/30 09:29:59;;;;;;;11.73;9.47;;;20.20;84.50;;;;;;5081236;28;20279;-63
2022/08/30 09:32:28;;;;;;;14.70;10.43;;;20.10;86.30;;;;;;5080040;28;20215;-63
2022/08/30 09:34:54;;;;;;;8.30;7.03;;;20.40;82.90;;;;;;5081490;28;20185;-63
2022/08/30 09:37:51;;;;;;;6.63;5.87;;;20.30;86.20;;;;;;5071367;28;20200;-63
2022/08/30 09:40:31;;;;;;;6.43;5.23;;;20.30;84.80;;;;;;5037479;28;20209;-63
2022/08/30 09:43:05;;;;;;;9.63;6.93;;;20.20;84.60;;;;;;5094056;28;20196;-63
2022/08/30 09:45:35;;;;;;;8.70;5.90;;;20.20;85.50;;;;;;5083027;28;20183;-62
2022/08/30 09:48:27;;;;;;;8.83;6.30;;;20.10;84.90;;;;;;5088735;28;20197;-62
2022/08/30 09:51:05;;;;;;;6.83;5.30;;;20.20;83.60;;;;;;5077437;28;20280;-62
2022/08/30 09:53:34;;;;;;;7.83;5.10;;;20.30;83.60;;;;;;5084142;28;20294;-62
2022/08/30 09:56:26;;;;;;;6.90;6.20;;;20.50;81.90;;;;;;5079565;28;20200;-62
2022/08/30 09:59:16;;;;;;;6.83;5.93;;;20.40;85.60;;;;;;5075691;28;20255;-62
2022/08/30 10:01:47;;;;;;;5.87;5.37;;;20.30;83.90;;;;;;5088344;28;20188;-63
2022/08/30 10:04:28;;;;;;;6.60;6.00;;;20.50;83.30;;;;;;5086373;28;20185;-62
2022/08/30 10:07:01;;;;;;;6.13;5.63;;;20.40;85.00;;;;;;5075903;28;20262;-62
2022/08/30 10:09:32;;;;;;;6.50;5.93;;;20.30;86.70;;;;;;5078004;28;20222;-62
2022/08/30 10:12:21;;;;;;;6.50;5.83;;;20.30;85.80;;;;;;5075588;28;20251;-62
2022/08/30 10:14:55;;;;;;;7.53;5.90;;;20.30;87.40;;;;;;5028599;28;20204;-61
2022/08/30 10:17:48;;;;;;;8.83;5.50;;;20.30;87.90;;;;;;5076893;28;20238;-61
2022/08/30 10:20:30;;;;;;;8.07;5.37;;;20.30;86.40;;;;;;5040070;28;20192;-62
2022/08/30 10:23:05;;;;;;;6.63;4.80;;;20.80;82.50;;;;;;5106644;28;20195;-62
2022/08/30 10:25:50;;;;;;;6.00;5.40;;;21.00;81.10;;;;;;5079722;28;20222;-62
2022/08/30 10:28:53;;;;;;;8.10;6.00;;;21.00;83.40;;;;;;5102156;28;20261;-63
2022/08/30 10:31:33;;;;;;;7.23;5.33;;;20.90;84.30;;;;;;5108161;28;20200;-64
2022/08/30 10:34:07;;;;;;;5.83;5.20;;;21.00;84.00;;;;;;5099524;27;20217;-64
2022/08/30 10:36:47;;;;;;;8.53;6.57;;;20.90;84.20;;;;;;5119717;27;20238;-63
2022/08/30 10:39:19;;;;;;;9.33;5.77;;;21.00;85.90;;;;;;5094222;28;20194;-65
2022/08/30 10:42:22;;;;;;;6.30;5.70;;;21.00;85.30;;;;;;5096742;28;20230;-65
2022/08/30 10:45:02;;;;;;;6.07;5.27;;;21.10;85.80;;;;;;5091528;28;20208;-65
2022/08/30 10:47:33;;;;;;;5.30;4.80;;;21.00;85.40;;;;;;5092781;28;20329;-64
2022/08/30 10:50:15;;;;;;;6.37;5.40;;;21.10;84.40;;;;;;5093270;28;20215;-64
2022/08/30 10:52:46;;;;;;;6.50;4.30;;;21.20;84.80;;;;;;5089042;28;20204;-64
2022/08/30 10:55:32;;;;;;;6.23;5.60;;;21.60;83.40;;;;;;5094555;28;20199;-63
2022/08/30 10:58:05;;;;;;;6.67;5.00;;;21.70;85.00;;;;;;5084659;27;20270;-63
2022/08/30 11:00:50;;;;;;;9.47;5.43;;;21.50;84.80;;;;;;5104139;27;20218;-64
2022/08/30 11:03:53;;;;;;;5.60;5.00;;;22.00;82.30;;;;;;5096680;28;20192;-64
2022/08/30 11:06:45;;;;;;;5.00;4.60;;;22.10;81.80;;;;;;5093856;28;20278;-64
2022/08/30 11:09:20;;;;;;;4.77;4.07;;;22.00;82.40;;;;;;5113850;28;20184;-63
2022/08/30 11:11:48;;;;;;;7.00;4.57;;;22.00;82.20;;;;;;5114787;28;20191;-63
2022/08/30 11:14:17;;;;;;;5.20;4.70;;;22.30;80.80;;;;;;5097410;28;20196;-65
2022/08/30 11:16:46;;;;;;;4.93;4.43;;;22.60;76.20;;;;;;5094509;28;20240;-64
2022/08/30 11:19:18;;;;;;;5.10;4.57;;;22.50;75.40;;;;;;5095507;28;20180;-64
2022/08/30 11:21:45;;;;;;;5.20;4.70;;;22.50;78.50;;;;;;5095639;28;20191;-65
2022/08/30 11:24:22;;;;;;;4.87;4.47;;;22.50;77.70;;;;;;5076784;27;20323;-65
2022/08/30 11:26:47;;;;;;;5.10;4.20;;;22.80;78.30;;;;;;5075029;28;20240;-64
2022/08/30 11:29:25;;;;;;;6.57;4.90;;;22.90;78.90;;;;;;5077519;28;20184;-62
2022/08/30 11:31:52;;;;;;;7.20;4.40;;;23.00;79.90;;;;;;5093089;28;20177;-64
2022/08/30 11:34:43;;;;;;;7.30;4.73;;;23.00;78.40;;;;;;5058032;28;20188;-63
2022/08/30 11:37:27;;;;;;;6.13;5.13;;;23.30;77.40;;;;;;5086696;28;20247;-63
2022/08/30 11:39:55;;;;;;;5.00;4.37;;;23.30;76.70;;;;;;5073824;28;20259;-63
2022/08/30 11:42:28;;;;;;;5.90;4.80;;;23.30;76.80;;;;;;5073850;28;20189;-63
2022/08/30 11:45:22;;;;;;;6.97;4.63;;;23.30;73.70;;;;;;5071119;28;20190;-63
2022/08/30 11:47:53;;;;;;;6.93;4.10;;;23.50;75.40;;;;;;5087101;28;20197;-63
2022/08/30 11:50:37;;;;;;;5.90;4.40;;;23.50;78.20;;;;;;5075230;28;20211;-63
2022/08/30 11:53:15;;;;;;;9.27;5.80;;;23.70;75.70;;;;;;5065961;28;20263;-62
2022/08/30 11:56:15;;;;;;;5.50;4.67;;;23.70;77.90;;;;;;5070501;28;20185;-62
2022/08/30 11:58:47;;;;;;;7.13;4.50;;;24.20;72.90;;;;;;5084705;28;20185;-62
2022/08/30 12:01:24;;;;;;;6.67;4.43;;;24.40;66.90;;;;;;5079515;28;20177;-62
2022/08/30 12:04:18;;;;;;;5.77;4.80;;;24.50;67.50;;;;;;5071126;28;20197;-63
2022/08/30 12:06:46;;;;;;;5.20;4.00;;;24.80;70.20;;;;;;5070651;28;20227;-62
2022/08/30 12:09:34;;;;;;;5.27;4.77;;;24.70;66.50;;;;;;5072707;28;20188;-63
2022/08/30 12:12:07;;;;;;;4.70;4.20;;;24.90;69.10;;;;;;5080873;28;20212;-63
2022/08/30 12:14:51;;;;;;;6.87;4.00;;;25.00;68.60;;;;;;5073811;28;20195;-62
2022/08/30 12:20:16;;;;;;;6.47;4.40;;;25.20;69.20;;;;;;5091916;28;20196;-62
2022/08/30 12:22:44;;;;;;;4.73;4.33;;;25.40;71.80;;;;;;5073329;28;20185;-62
2022/08/30 12:25:33;;;;;;;5.53;4.07;;;25.60;68.50;;;;;;5069518;28;20262;-62
2022/08/30 12:28:11;;;;;;;5.57;3.97;;;25.90;62.60;;;;;;5083876;28;20316;-63
2022/08/30 12:30:38;;;;;;;4.23;3.83;;;26.30;69.50;;;;;;5114729;27;20263;-63
2022/08/30 12:33:05;;;;;;;7.10;4.00;;;26.80;63.70;;;;;;5110307;27;20208;-63
2022/08/30 12:35:32;;;;;;;4.40;4.00;;;27.00;63.70;;;;;;5093029;28;20185;-62
2022/08/30 12:38:05;;;;;;;4.60;4.20;;;27.20;64.50;;;;;;5093649;28;20192;-61
2022/08/30 12:40:33;;;;;;;4.30;3.90;;;27.50;58.50;;;;;;5093579;28;20184;-62
2022/08/30 12:43:03;;;;;;;4.40;4.00;;;27.80;60.30;;;;;;5077555;28;20206;-62
2022/08/30 12:45:45;;;;;;;4.80;3.90;;;28.00;57.00;;;;;;5092706;28;20189;-62
2022/08/30 12:48:15;;;;;;;5.10;3.70;;;28.10;58.70;;;;;;5093939;28;20195;-61
2022/08/30 12:51:00;;;;;;;3.97;3.60;;;28.40;58.30;;;;;;5107503;28;20202;-61
2022/08/30 12:53:30;;;;;;;4.20;3.40;;;28.80;52.90;;;;;;5092071;28;20200;-62
2022/08/30 12:56:12;;;;;;;5.83;4.00;;;29.00;53.50;;;;;;5094555;28;20192;-61
2022/08/30 12:58:50;;;;;;;5.27;3.63;;;29.20;52.20;;;;;;5099980;28;20184;-61
2022/08/30 13:01:34;;;;;;;4.67;3.50;;;29.60;55.20;;;;;;5104935;28;20191;-61
2022/08/30 13:04:19;;;;;;;4.47;3.97;;;30.00;52.40;;;;;;5104297;27;20274;-61
2022/08/30 13:06:49;;;;;;;5.87;3.70;;;30.30;51.00;;;;;;5094140;28;20192;-61
2022/08/30 13:09:42;;;;;;;4.93;3.80;;;30.50;52.70;;;;;;5090600;28;20176;-61